Latest Coastal Weather Observations for McCluer Island

IDD60701

Issued at 12:31 pm CST Tuesday 23 December 2014 (issued every 10 minutes, with the page automatically refreshed every 10 minutes)

About coastal observations | Map of coastal stations | Coastal observations for NT | Marine services | Other Formats
Station Details ID: 014274 Name: MCCLUER ISLAND Lat: -11.05 Lon: 132.98 Height: 1.4 m
Data from the previous 72 hours. | See also: Recent months at McCluer Island
Date/Time
CST
Temp

°C
Wind Pressure Rain
since 9am
mm
Weather Cloud Vis
km
Sea
Height
m
Swell
Dir
 
Speed
knots
Gust
knots
hPa Trend Height
m
Period
s
Dir
23/12:30pm 32.2 NE 4 6 1008.8 - 0.0 - - - - - - -
23/12:00pm 32.3 ENE 6 7 1009.3 - 0.0 - - - - - - -
23/11:30am 31.9 NE 5 6 1009.5 - 0.0 - - - - - - -
23/11:00am 32.2 N 4 5 1009.7 - 0.0 - - - - - - -
23/10:30am 32.5 WSW 4 5 1009.9 - 0.0 - - - - - - -
23/10:00am 32.0 WSW 4 5 1009.9 - 0.0 - - - - - - -
23/09:30am 31.7 WSW 4 5 1009.7 - 0.0 - - - - - - -
23/09:00am 30.3 SW 4 5 1009.7 - 0.0 - - - - - - -
23/08:30am 30.5 SW 3 5 1009.4 - 0.0 - - - - - - -
23/08:00am 31.0 SW 3 5 1009.3 - 0.0 - - - - - - -
23/07:30am 30.3 ESE 4 5 1009.0 - 0.0 - - - - - - -
23/07:00am 28.8 E 3 4 1008.8 - 0.0 - - - - - - -
23/06:30am 28.2 N 2 3 1008.3 - 0.0 - - - - - - -
23/06:00am 28.1 N 1 3 1007.9 - 0.0 - - - - - - -
23/05:30am 28.6 CALM 0 0 1007.7 - 0.0 - - - - - - -
23/05:00am 29.4 N 2 4 1007.8 - 0.0 - - - - - - -
23/04:30am 29.9 N 5 6 1007.6 - 0.0 - - - - - - -
23/04:00am 29.6 NNE 3 4 1007.6 - 0.0 - - - - - - -
23/03:30am 29.4 N 4 5 1007.3 - 0.0 - - - - - - -
23/03:00am 29.6 NNE 4 5 1007.2 - 0.0 - - - - - - -
23/02:30am 29.6 NE 5 6 1007.2 - 0.0 - - - - - - -
23/02:00am 29.5 N 2 3 1007.1 - 0.0 - - - - - - -
23/01:30am 29.7 N 5 6 1007.1 - 0.0 - - - - - - -
23/01:00am 29.7 N 5 6 1007.3 - 0.0 - - - - - - -
23/12:30am 29.7 N 4 5 1007.6 - 0.0 - - - - - - -
23/12:00am 29.6 N 3 4 1007.7 - 0.0 - - - - - - -
 
Date/Time
CST
Temp

°C
Wind Pressure Rain
since 9am
mm
Weather Cloud Vis
km
Sea
Height
m
Swell
Dir
 
Speed
knots
Gust
knots
hPa Trend Height
m
Period
s
Dir
22/11:30pm 29.9 N 4 5 1007.7 - 0.0 - - - - - - -
22/11:00pm 30.2 N 5 7 1007.8 - 0.0 - - - - - - -
22/10:30pm 30.3 N 6 7 1007.5 - 0.0 - - - - - - -
22/10:00pm 30.1 NNE 5 6 1007.4 - 0.0 - - - - - - -
22/09:30pm 30.2 N 5 6 1007.1 - 0.0 - - - - - - -
22/09:00pm 30.3 N 6 7 1007.1 - 0.0 - - - - - - -
22/08:30pm 30.3 N 7 8 1006.8 - 0.0 - - - - - - -
22/08:00pm 30.2 N 6 7 1006.3 - 0.0 - - - - - - -
22/07:30pm 30.2 NNE 4 5 1006.2 - 0.0 - - - - - - -
22/07:00pm 30.3 ENE 4 5 1006.1 - 0.0 - - - - - - -
22/06:30pm 30.4 ENE 5 6 1005.8 - 0.0 - - - - - - -
22/06:00pm 30.8 ENE 4 6 1005.7 - 0.0 - - - - - - -
22/05:30pm 31.0 NE 6 8 1005.9 - 0.0 - - - - - - -
22/05:00pm 30.9 NE 6 7 1006.1 - 0.0 - - - - - - -
22/04:30pm 31.2 ENE 6 8 1006.2 - 0.0 - - - - - - -
22/04:00pm 31.0 NE 7 9 1006.3 - 0.0 - - - - - - -
22/03:30pm 31.5 NE 7 8 1006.3 - 0.0 - - - - - - -
22/03:00pm 31.6 NE 7 9 1006.6 - 0.0 - - - - - - -
22/02:30pm 31.8 NNE 7 8 1007.0 - 0.0 - - - - - - -
22/02:00pm 32.4 NNE 7 8 1007.2 - 0.0 - - - - - - -
22/01:30pm 32.0 NE 7 8 1007.6 - 0.0 - - - - - - -
22/01:00pm 32.1 ENE 8 9 1007.8 - 0.0 - - - - - - -
22/12:30pm 31.7 ENE 6 9 1008.3 - 0.0 - - - - - - -
22/12:00pm 32.1 NE 7 8 1008.5 - 0.0 - - - - - - -
22/11:30am 31.1 NE 7 8 1008.7 - 0.0 - - - - - - -
22/11:00am 31.5 NE 7 8 1008.9 - 0.0 - - - - - - -
22/10:30am 31.1 NE 7 9 1009.1 - 0.0 - - - - - - -
22/10:00am 31.5 NE 4 6 1009.2 - 0.0 - - - - - - -
22/09:30am 31.5 ENE 4 5 1009.5 - 0.0 - - - - - - -
22/09:00am 31.2 CALM 0 0 1009.5 - 0.0 - - - - - - -
22/08:30am 31.2 CALM 0 1 1009.3 - 0.0 - - - - - - -
22/08:00am 30.2 CALM 0 0 1009.1 - 0.0 - - - - - - -
22/07:30am 29.7 CALM 0 3 1008.8 - 0.0 - - - - - - -
22/07:00am 29.1 SSW 3 4 1008.4 - 0.0 - - - - - - -
22/06:30am 28.1 CALM 0 0 1008.1 - 0.0 - - - - - - -
22/06:00am 28.1 S 2 3 1007.7 - 0.0 - - - - - - -
22/05:30am 28.1 S 6 6 1007.5 - 0.0 - - - - - - -
22/05:00am 28.4 CALM 0 0 1007.2 - 0.0 - - - - - - -
22/04:30am 28.6 CALM 0 0 1007.2 - 0.0 - - - - - - -
22/04:00am 28.5 CALM 0 0 1007.0 - 0.0 - - - - - - -
22/03:30am 29.2 CALM 0 0 1006.9 - 0.0 - - - - - - -
22/03:00am 28.7 N 2 3 1007.2 - 0.0 - - - - - - -
22/02:30am 29.5 NNW 2 4 1007.3 - 0.0 - - - - - - -
22/02:00am 29.6 N 3 5 1007.5 - 0.0 - - - - - - -
22/01:30am 29.8 N 3 4 1007.5 - 0.0 - - - - - - -
22/01:00am 29.8 N 3 4 1007.6 - 0.0 - - - - - - -
22/12:30am 29.9 N 3 4 1007.9 - 0.0 - - - - - - -
22/12:00am 30.1 NNE 4 6 1008.0 - 0.0 - - - - - - -
 
Date/Time
CST
Temp

°C
Wind Pressure Rain
since 9am
mm
Weather Cloud Vis
km
Sea
Height
m
Swell
Dir
 
Speed
knots
Gust
knots
hPa Trend Height
m
Period
s
Dir
21/11:30pm 30.1 N 4 5 1008.0 - 0.0 - - - - - - -
21/11:00pm 30.2 N 4 5 1007.8 - 0.0 - - - - - - -
21/10:30pm 30.2 NNE 4 5 1007.7 - 0.0 - - - - - - -
21/10:00pm 30.4 ENE 3 4 1007.6 - 0.0 - - - - - - -
21/09:30pm 30.4 NE 4 4 1007.2 - 0.0 - - - - - - -
21/09:00pm 30.5 NE 4 5 1006.6 - 0.0 - - - - - - -
21/08:30pm 30.4 NE 4 5 1006.2 - 0.0 - - - - - - -
21/08:00pm 30.5 NE 6 7 1005.8 - 0.0 - - - - - - -
21/07:30pm 30.8 NNE 7 8 1005.4 - 0.0 - - - - - - -
21/07:00pm 30.6 NE 7 8 1005.2 - 0.0 - - - - - - -
21/06:30pm 30.7 NE 6 8 1005.2 - 0.0 - - - - - - -
21/06:00pm 30.8 NE 6 7 1005.0 - 0.0 - - - - - - -
21/05:30pm 31.1 NE 5 7 1005.0 - 0.0 - - - - - - -
21/05:00pm 31.3 NE 5 6 1004.9 - 0.0 - - - - - - -
21/04:30pm 31.6 NE 5 7 1005.0 - 0.0 - - - - - - -
21/04:00pm 31.6 NNE 6 8 1005.3 - 0.0 - - - - - - -
21/03:30pm 31.7 NE 6 8 1005.7 - 0.0 - - - - - - -
21/03:00pm 31.9 NE 6 8 1005.9 - 0.0 - - - - - - -
21/02:30pm 32.2 NE 6 7 1006.2 - 0.0 - - - - - - -
21/02:00pm 32.2 NE 6 7 1006.8 - 0.0 - - - - - - -
21/01:30pm 32.3 ENE 5 6 1007.3 - 0.0 - - - - - - -
21/01:00pm 32.9 N 5 6 1007.9 - 0.0 - - - - - - -
21/12:30pm 32.0 N 6 7 1008.4 - 0.0 - - - - - - -
21/12:00pm 32.3 N 4 5 1009.0 - 0.0 - - - - - - -
21/11:30am 32.2 W 4 5 1009.5 - 0.0 - - - - - - -
21/11:00am 32.1 WSW 4 5 1009.9 - 0.0 - - - - - - -
21/10:30am 33.8 ESE 2 5 1010.3 - 0.0 - - - - - - -
21/10:00am 32.3 N 3 4 1010.2 - 0.0 - - - - - - -
21/09:30am 32.1 NW 4 5 1010.1 - 0.0 - - - - - - -
21/09:00am 32.0 WNW 3 4 1009.9 - 0.0 - - - - - - -
21/08:30am 31.2 E 3 4 1009.3 - 0.0 - - - - - - -
21/08:00am 30.8 N 3 4 1009.0 - 0.0 - - - - - - -
21/07:30am 30.5 NNW 3 4 1008.8 - 0.0 - - - - - - -
21/07:00am 30.1 NNW 6 7 1008.5 - 0.0 - - - - - - -
21/06:30am 29.6 NNE 6 7 1007.9 - 0.0 - - - - - - -
21/06:00am 29.7 N 6 8 1007.6 - 0.0 - - - - - - -
21/05:30am 29.6 NNW 7 8 1007.3 - 0.0 - - - - - - -
21/05:00am 29.7 NNW 7 9 1007.1 - 0.0 - - - - - - -
21/04:30am 29.7 NNW 7 9 1007.0 - 0.0 - - - - - - -
21/04:00am 29.8 N 6 8 1007.0 - 0.0 - - - - - - -
21/03:30am 29.9 NNW 8 9 1006.8 - 0.0 - - - - - - -
21/03:00am 29.9 NNW 10 11 1006.9 - 0.0 - - - - - - -
21/02:30am 30.0 NNW 10 11 1007.2 - 0.0 - - - - - - -
21/02:00am 30.1 NNW 10 11 1007.4 - 0.0 - - - - - - -
21/01:30am 30.3 NNW 11 12 1007.7 - 0.0 - - - - - - -
21/01:00am 30.2 NNW 10 12 1008.2 - 0.0 - - - - - - -
21/12:30am 30.1 NNW 10 11 1008.5 - 0.0 - - - - - - -
21/12:00am 30.2 NNW 10 12 1008.5 - 0.0 - - - - - - -
 
Date/Time
CST
Temp

°C
Wind Pressure Rain
since 9am
mm
Weather Cloud Vis
km
Sea
Height
m
Swell
Dir
 
Speed
knots
Gust
knots
hPa Trend Height
m
Period
s
Dir
20/11:30pm 30.2 NNW 10 11 1008.6 - 0.0 - - - - - - -
20/11:00pm 30.2 NNW 7 8 1008.6 - 0.0 - - - - - - -
20/10:30pm 30.3 N 8 9 1008.2 - 0.0 - - - - - - -
20/10:00pm 30.8 N 9 11 1007.9 - 0.0 - - - - - - -
20/09:30pm 30.5 N 9 11 1007.7 - 0.0 - - - - - - -
20/09:00pm 30.3 N 10 11 1007.4 - 0.0 - - - - - - -
20/08:30pm 30.7 N 10 12 1007.1 - 0.0 - - - - - - -
20/08:00pm 30.6 N 10 11 1006.7 - 0.0 - - - - - - -
20/07:30pm 30.7 N 10 11 1006.3 - 0.0 - - - - - - -
20/07:00pm 30.7 N 10 12 1006.0 - 0.0 - - - - - - -
20/06:30pm 31.0 N 11 13 1005.6 - 0.0 - - - - - - -
20/06:00pm 31.2 N 9 11 1005.5 - 0.0 - - - - - - -
20/05:30pm 31.5 N 8 9 1005.4 - 0.0 - - - - - - -
20/05:00pm 31.7 N 7 9 1005.5 - 0.0 - - - - - - -
20/04:30pm 32.1 N 6 7 1005.5 - 0.0 - - - - - - -
20/04:00pm 32.7 N 6 7 1005.5 - 0.0 - - - - - - -
20/03:30pm 32.9 NNW 6 7 1005.8 - 0.0 - - - - - - -
20/03:00pm 33.2 NNW 5 7 1006.2 - 0.0 - - - - - - -
20/02:30pm 33.5 NW 5 6 1006.6 - 0.0 - - - - - - -
20/02:00pm 33.9 WNW 5 6 1006.9 - 0.0 - - - - - - -
20/01:30pm 33.4 W 4 5 1007.3 - 0.0 - - - - - - -
20/01:00pm 33.7 W 4 5 1007.7 - 0.0 - - - - - - -

Other Formats:

Comma delimited format used in spreadsheet applications
http://www.bom.gov.au/fwo/IDD60701/IDD60701.94135.axf

JavaScript Object Notation format (JSON) in row-major order
http://www.bom.gov.au/fwo/IDD60701/IDD60701.94135.json